Estación Meteorológica Peña el Pijo (Robertgarden) [ 08/22/19 14:53:51 CEST ]

Fecha Hora Presion(HPa) Temp (°C) Humedad % Rocio (°C) Viento ( m/s) Direccion Lluvia 1Hora(mm) Lluvia 24H(mm) LLuvia Total(mm)
2019-Feb-10 01:01:56 1011.900 1.4 63 -4.9         183.37
2019-Feb-10 02:02:24 1011.200 1.2 65 -4.7         183.37
2019-Feb-10 03:02:20 1010.900 1.4 65 -4.5         183.37
2019-Feb-10 04:02:16 1010.500 -0.8 69 -5.8         183.37
2019-Feb-10 05:02:18 1009.800 -1.1 72 -5.5         183.37
2019-Feb-10 06:01:52 1010.000 -1.1 74 -5.2         183.37
2019-Feb-10 07:02:05 1010.400 -1.2 75 -5.1         183.37
2019-Feb-10 08:01:42 1010.800 0.4 71 -4.3         183.37
2019-Feb-10 09:01:35 1011.500 2.9 62 -3.7         183.37
2019-Feb-10 10:01:30 1011.900 10.5 39 -2.9         183.37
2019-Feb-10 11:01:37 1012.100 12.8 35 -2.4         183.37
2019-Feb-10 12:01:39 1012.500 10.8 44 -1.0         183.37
2019-Feb-10 13:01:46 1012.100 10.3 49 0.1         183.37
2019-Feb-10 14:01:53 1011.900 10.6 52 1.1         183.37
2019-Feb-10 15:01:44 1011.800 12.1 51 2.2         183.37
2019-Feb-10 16:01:32 1012.500 10.9 53 1.7         183.37
2019-Feb-10 17:01:52 1011.600 9.1 59 1.5 1.4 WNW     183.37
2019-Feb-10 18:01:39 1012.000 8.8 59 1.2         183.37
2019-Feb-10 19:01:34 1012.900 7.6 64 1.2         183.37
2019-Feb-10 20:01:58 1013.000 6.8 69 1.5         183.37
2019-Feb-10 21:02:06 1013.400 7.2 72 2.5         183.37
2019-Feb-10 22:01:47 1013.600 7.5 74 3.2         183.37
2019-Feb-10 23:01:37 1014.000 8.1 75 3.9         183.37

Temperatura Máxima:12°    Temperatura Mínima:-1°
Presión Máxima:1014.000 Hpa    Presión Mínima:1009.800 Hpa


Volver